createdAt,value
2019-01-24T00:01:07.662Z,71.24
2019-01-24T00:02:40.670Z,70.88
2019-01-24T00:04:16.817Z,70.81
2019-01-24T00:05:49.291Z,70.39
2019-01-24T00:07:23.155Z,70.77
2019-01-24T00:08:57.067Z,71.41
2019-01-24T00:10:31.453Z,71.14
2019-01-24T00:12:05.490Z,70.77
2019-01-24T00:13:38.565Z,70.62
2019-01-24T00:15:11.815Z,70.78
2019-01-24T00:16:45.658Z,71.14
2019-01-24T00:18:19.936Z,71.34
2019-01-24T00:19:54.235Z,70.59
2019-01-24T00:21:27.847Z,71.42
2019-01-24T00:23:01.916Z,71.43
2019-01-24T00:24:36.043Z,71.48
2019-01-24T00:26:09.910Z,71.21
2019-01-24T00:27:44.033Z,71.42
2019-01-24T00:29:17.899Z,71.00
2019-01-24T00:30:51.126Z,71.52
2019-01-24T00:32:25.146Z,71.21
2019-01-24T00:33:58.371Z,71.65
2019-01-24T00:35:32.824Z,71.83
2019-01-24T00:37:05.886Z,71.58
2019-01-24T00:38:39.044Z,72.00
2019-01-24T00:40:12.722Z,71.49
2019-01-24T00:41:47.035Z,71.70
2019-01-24T00:43:20.568Z,71.42
2019-01-24T00:44:53.436Z,71.92
2019-01-24T00:46:26.557Z,71.70
2019-01-24T00:48:01.003Z,72.21
2019-01-24T00:49:35.204Z,71.34
2019-01-24T00:51:09.081Z,71.43
2019-01-24T00:52:42.942Z,71.79
2019-01-24T00:54:15.841Z,71.93
2019-01-24T00:55:49.867Z,72.24
2019-01-24T00:57:23.895Z,71.85
2019-01-24T00:58:56.922Z,71.82
2019-01-24T01:00:34.729Z,72.16
2019-01-24T01:02:08.668Z,72.09
2019-01-24T01:03:41.518Z,72.03
2019-01-24T01:05:15.455Z,72.24
2019-01-24T01:06:49.206Z,72.10
2019-01-24T01:08:25.404Z,72.16
2019-01-24T01:09:59.522Z,72.60
2019-01-24T01:11:33.631Z,71.92
2019-01-24T01:13:07.867Z,72.80
2019-01-24T01:14:42.624Z,72.22
2019-01-24T01:16:16.560Z,72.33
2019-01-24T01:17:50.518Z,71.84
2019-01-24T01:20:30.208Z,72.56
2019-01-24T01:22:05.648Z,71.90
2019-01-24T01:23:38.877Z,72.13
2019-01-24T01:25:13.253Z,72.20
2019-01-24T01:26:47.485Z,72.52
2019-01-24T01:28:21.671Z,72.05
2019-01-24T01:29:55.348Z,72.72
2019-01-24T01:31:29.958Z,72.62
2019-01-24T01:33:03.172Z,72.43
2019-01-24T01:34:37.170Z,72.57
2019-01-24T01:36:11.293Z,72.26
2019-01-24T01:37:45.395Z,72.11
2019-01-24T01:39:18.256Z,72.08
2019-01-24T01:40:52.179Z,72.22
2019-01-24T01:42:25.133Z,71.89
2019-01-24T01:43:59.540Z,72.66
2019-01-24T01:45:36.056Z,71.86
2019-01-24T01:47:08.880Z,72.20
2019-01-24T01:48:42.958Z,71.90
2019-01-24T01:50:16.989Z,71.84
2019-01-24T01:51:51.017Z,72.00
2019-01-24T01:53:25.155Z,72.22
2019-01-24T01:54:59.131Z,72.24
2019-01-24T01:56:33.530Z,72.12
2019-01-24T01:58:07.590Z,72.13
2019-01-24T01:59:41.815Z,72.02
2019-01-24T02:01:15.666Z,72.62
2019-01-24T02:02:50.258Z,72.30
2019-01-24T02:04:23.761Z,72.56
2019-01-24T02:05:56.632Z,71.93
2019-01-24T02:07:31.243Z,71.91
2019-01-24T02:09:05.237Z,72.51
2019-01-24T02:10:39.235Z,72.56
2019-01-24T02:12:13.444Z,71.94
2019-01-24T02:13:47.698Z,72.21
2019-01-24T02:15:23.316Z,72.48
2019-01-24T02:16:57.706Z,71.71
2019-01-24T02:18:30.495Z,72.25
2019-01-24T02:20:04.435Z,72.25
2019-01-24T02:21:39.225Z,71.93
2019-01-24T02:23:12.741Z,72.12
2019-01-24T02:24:46.687Z,71.76
2019-01-24T02:26:19.666Z,71.93
2019-01-24T02:27:52.796Z,72.51
2019-01-24T02:29:26.916Z,72.56
2019-01-24T02:31:00.903Z,72.19
2019-01-24T02:32:34.941Z,71.86
2019-01-24T02:34:09.422Z,71.57
2019-01-24T02:35:43.350Z,72.06
2019-01-24T02:37:17.767Z,71.85
2019-01-24T02:38:51.873Z,72.13
2019-01-24T02:40:25.952Z,71.80
2019-01-24T02:42:00.121Z,72.02
2019-01-24T02:43:35.010Z,71.54
2019-01-24T02:45:08.786Z,71.46
2019-01-24T02:46:42.902Z,72.22
2019-01-24T02:48:17.053Z,72.22
2019-01-24T02:49:51.140Z,71.90
2019-01-24T02:51:25.002Z,71.64
2019-01-24T02:52:58.042Z,71.90
2019-01-24T02:54:32.553Z,71.85
2019-01-24T02:56:06.510Z,71.89
2019-01-24T02:57:39.653Z,71.41
2019-01-24T02:59:15.025Z,71.38
2019-01-24T03:00:48.860Z,71.87
2019-01-24T03:02:22.862Z,71.90
2019-01-24T03:03:57.351Z,72.09
2019-01-24T03:05:33.817Z,72.22
2019-01-24T03:07:08.141Z,72.04
2019-01-24T03:08:42.571Z,71.76
2019-01-24T03:10:16.609Z,71.87
2019-01-24T03:11:50.755Z,72.14
2019-01-24T03:13:25.109Z,71.81
2019-01-24T03:14:57.930Z,71.85
2019-01-24T03:16:32.047Z,71.60
2019-01-24T03:18:06.045Z,71.55
2019-01-24T03:19:39.372Z,71.82
2019-01-24T03:21:12.386Z,71.99
2019-01-24T03:22:46.462Z,71.69
2019-01-24T03:24:21.139Z,72.26
2019-01-24T03:25:55.467Z,71.84
2019-01-24T03:27:29.482Z,71.75
2019-01-24T03:29:03.577Z,71.55
2019-01-24T03:30:39.617Z,72.24
2019-01-24T03:32:13.645Z,72.12
2019-01-24T03:33:48.279Z,71.55
2019-01-24T03:35:24.487Z,72.04
2019-01-24T03:36:58.441Z,72.22
2019-01-24T03:38:31.462Z,71.82
2019-01-24T03:40:04.768Z,72.20
2019-01-24T03:41:38.882Z,72.07
2019-01-24T03:43:12.794Z,71.56
2019-01-24T03:47:23.402Z,72.04
2019-01-24T03:48:56.664Z,71.80
2019-01-24T03:50:32.814Z,71.54
2019-01-24T03:52:06.097Z,71.85
2019-01-24T03:53:39.192Z,71.66
2019-01-24T03:55:13.395Z,71.65
2019-01-24T03:56:47.505Z,72.12
2019-01-24T03:58:22.131Z,71.67
2019-01-24T03:59:57.336Z,71.68
2019-01-24T04:01:31.330Z,71.59
2019-01-24T04:03:06.499Z,71.46
2019-01-24T04:04:39.813Z,71.64
2019-01-24T04:06:13.058Z,72.06
2019-01-24T04:07:47.696Z,72.04
2019-01-24T04:09:23.514Z,71.92
2019-01-24T04:10:57.546Z,72.03
2019-01-24T04:12:31.194Z,72.02
2019-01-24T04:14:04.381Z,71.80
2019-01-24T04:15:40.273Z,72.01
2019-01-24T04:17:14.796Z,71.66
2019-01-24T04:18:47.962Z,71.78
2019-01-24T04:20:23.508Z,71.60
2019-01-24T04:21:56.585Z,71.44
2019-01-24T04:23:30.624Z,71.28
2019-01-24T04:25:04.401Z,71.95
2019-01-24T04:26:38.405Z,71.35
2019-01-24T04:28:13.382Z,71.83
2019-01-24T04:29:47.747Z,71.23
2019-01-24T04:31:21.780Z,71.89
2019-01-24T04:32:55.697Z,71.57
2019-01-24T04:34:30.296Z,71.22
2019-01-24T04:36:03.854Z,71.41
2019-01-24T04:37:38.202Z,71.37
2019-01-24T04:39:12.412Z,71.32
2019-01-24T04:40:46.891Z,71.24
2019-01-24T04:42:21.339Z,71.23
2019-01-24T04:43:55.219Z,71.52
2019-01-24T04:45:30.237Z,71.61
2019-01-24T04:47:04.280Z,71.60
2019-01-24T04:48:38.570Z,70.93
2019-01-24T04:50:13.337Z,71.68
2019-01-24T04:51:47.456Z,71.57
2019-01-24T04:53:21.525Z,71.23
2019-01-24T04:54:55.978Z,71.08
2019-01-24T04:56:30.237Z,71.19
2019-01-24T04:58:05.892Z,70.95
2019-01-24T04:59:40.265Z,71.49
2019-01-24T05:01:14.698Z,70.98
2019-01-24T05:02:48.709Z,70.90
2019-01-24T05:04:22.819Z,71.46
2019-01-24T05:05:57.297Z,71.41
2019-01-24T05:07:31.442Z,70.93
2019-01-24T05:09:05.067Z,71.33
2019-01-24T05:10:38.300Z,71.47
2019-01-24T05:12:12.958Z,71.00
2019-01-24T05:13:46.948Z,71.02
2019-01-24T05:15:20.963Z,71.13
2019-01-24T05:16:54.767Z,70.90
2019-01-24T05:18:28.195Z,71.17
2019-01-24T05:20:01.956Z,71.32
2019-01-24T05:21:35.754Z,70.74
2019-01-24T05:23:10.356Z,71.14
2019-01-24T05:24:43.723Z,71.16
2019-01-24T05:26:17.874Z,71.18
2019-01-24T05:27:51.452Z,70.97
2019-01-24T05:29:25.364Z,71.25
2019-01-24T05:30:58.350Z,71.04
2019-01-24T05:32:32.226Z,70.92
2019-01-24T05:34:06.464Z,71.08
2019-01-24T05:35:39.501Z,70.82
2019-01-24T05:37:13.718Z,70.78
2019-01-24T05:38:48.076Z,70.65
2019-01-24T05:40:23.299Z,70.63
2019-01-24T05:41:57.940Z,70.87
2019-01-24T05:43:30.937Z,70.96
2019-01-24T05:45:04.682Z,70.63
2019-01-24T05:46:38.781Z,70.62
2019-01-24T05:48:11.632Z,70.91
2019-01-24T05:49:44.563Z,71.09
2019-01-24T05:51:18.711Z,71.17
2019-01-24T05:52:52.982Z,71.04
2019-01-24T05:54:26.849Z,70.85
2019-01-24T05:56:01.196Z,71.17
2019-01-24T05:57:35.190Z,70.97
2019-01-24T05:59:08.440Z,71.02
2019-01-24T06:00:46.897Z,70.74
2019-01-24T06:02:21.822Z,71.03
2019-01-24T06:03:55.798Z,70.81
2019-01-24T06:05:31.022Z,71.05
2019-01-24T06:07:05.842Z,71.16
2019-01-24T06:08:39.701Z,71.13
2019-01-24T06:10:13.995Z,71.27
2019-01-24T06:11:47.085Z,71.19
2019-01-24T06:13:21.307Z,71.23
2019-01-24T06:14:55.550Z,71.28
2019-01-24T06:16:28.628Z,70.82
2019-01-24T06:18:02.850Z,70.90
2019-01-24T06:19:36.774Z,71.01
2019-01-24T06:21:11.210Z,71.36
2019-01-24T06:22:44.779Z,70.99
2019-01-24T06:24:17.887Z,71.24
2019-01-24T06:25:51.547Z,70.96
2019-01-24T06:27:26.037Z,71.50
2019-01-24T06:28:59.759Z,71.30
2019-01-24T06:30:36.036Z,71.05
2019-01-24T06:32:10.024Z,71.51
2019-01-24T06:33:44.067Z,71.10
2019-01-24T06:35:18.334Z,71.40
2019-01-24T06:36:52.569Z,71.66
2019-01-24T06:38:26.982Z,71.43
2019-01-24T06:40:01.236Z,71.67
2019-01-24T06:41:34.495Z,71.63
2019-01-24T06:43:08.787Z,71.66
2019-01-24T06:44:41.859Z,71.47
2019-01-24T06:46:15.870Z,71.44
2019-01-24T06:47:50.004Z,71.86
2019-01-24T06:49:23.158Z,71.77
2019-01-24T06:50:57.054Z,71.68
2019-01-24T06:52:31.079Z,71.74
2019-01-24T06:54:05.443Z,72.04
2019-01-24T06:55:42.546Z,72.01
2019-01-24T06:57:16.491Z,71.71
2019-01-24T06:58:49.348Z,72.20
2019-01-24T07:00:24.386Z,72.00
2019-01-24T07:01:57.342Z,72.24
2019-01-24T07:03:31.595Z,72.23
2019-01-24T07:05:04.672Z,72.02
2019-01-24T07:06:39.171Z,72.06
2019-01-24T07:08:13.459Z,72.25
2019-01-24T07:09:46.727Z,71.85
2019-01-24T07:11:20.567Z,72.30
2019-01-24T07:12:54.533Z,71.99
2019-01-24T07:14:28.517Z,71.87
2019-01-24T07:16:03.531Z,71.87
2019-01-24T07:17:38.114Z,72.23
2019-01-24T07:19:12.282Z,72.40
2019-01-24T07:20:46.576Z,72.13
2019-01-24T07:22:20.974Z,71.96
2019-01-24T07:23:55.063Z,72.33
2019-01-24T07:25:33.064Z,72.27
2019-01-24T07:27:07.163Z,72.44
2019-01-24T07:28:41.601Z,72.19
2019-01-24T07:30:15.481Z,72.14
2019-01-24T07:31:49.919Z,72.03
2019-01-24T07:33:24.031Z,72.24
2019-01-24T07:34:57.856Z,72.50
2019-01-24T07:36:31.795Z,72.00
2019-01-24T07:38:06.352Z,72.15
2019-01-24T07:39:40.630Z,72.05
2019-01-24T07:41:14.641Z,72.41
2019-01-24T07:42:48.157Z,72.10
2019-01-24T07:44:22.261Z,72.09
2019-01-24T07:45:58.826Z,72.24
2019-01-24T07:47:32.942Z,72.31
2019-01-24T07:49:07.152Z,72.26
2019-01-24T07:50:41.113Z,72.58
2019-01-24T07:52:15.059Z,72.60
2019-01-24T07:53:48.978Z,71.91
2019-01-24T07:55:24.366Z,72.61
2019-01-24T07:56:58.452Z,72.74
2019-01-24T07:58:32.174Z,72.23
2019-01-24T08:00:05.936Z,72.68
2019-01-24T08:01:39.713Z,72.20
2019-01-24T08:03:13.915Z,72.62
2019-01-24T08:04:48.112Z,72.55
2019-01-24T08:06:22.097Z,72.66
2019-01-24T08:07:56.197Z,72.14
2019-01-24T08:09:30.332Z,72.48
2019-01-24T08:11:04.950Z,72.59
2019-01-24T08:12:38.754Z,72.32
2019-01-24T08:14:12.111Z,72.69
2019-01-24T08:15:51.534Z,72.17
2019-01-24T08:17:26.910Z,72.55
2019-01-24T08:19:02.568Z,72.53
2019-01-24T08:20:40.594Z,72.36
2019-01-24T08:22:15.576Z,72.42
2019-01-24T08:23:50.280Z,72.40
2019-01-24T08:25:25.250Z,72.55
2019-01-24T08:26:59.073Z,72.31
2019-01-24T08:28:32.868Z,72.13
2019-01-24T08:30:06.932Z,72.19
2019-01-24T08:31:41.435Z,72.65
2019-01-24T08:33:15.427Z,72.54
2019-01-24T08:34:48.375Z,72.16
2019-01-24T08:36:23.769Z,72.44
2019-01-24T08:37:57.679Z,72.13
2019-01-24T08:39:32.770Z,71.95
2019-01-24T08:41:05.956Z,72.26
2019-01-24T08:42:41.292Z,72.04
2019-01-24T08:44:16.964Z,72.48
2019-01-24T08:45:52.044Z,71.99
2019-01-24T08:47:26.206Z,71.99
2019-01-24T08:49:00.699Z,72.41
2019-01-24T08:50:37.046Z,72.04
2019-01-24T08:52:11.476Z,72.49
2019-01-24T08:53:44.347Z,72.49
2019-01-24T08:55:17.446Z,72.12
2019-01-24T08:56:50.369Z,71.86
2019-01-24T08:58:25.367Z,71.96
2019-01-24T08:59:59.788Z,72.14
2019-01-24T09:01:33.852Z,71.92
2019-01-24T09:03:06.877Z,72.13
2019-01-24T09:04:40.003Z,71.79
2019-01-24T09:06:14.161Z,72.16
2019-01-24T09:07:47.137Z,72.37
2019-01-24T09:09:23.857Z,71.93
2019-01-24T09:11:00.690Z,72.40
2019-01-24T09:12:34.718Z,72.07
2019-01-24T09:14:09.405Z,72.45
2019-01-24T09:15:43.841Z,72.40
2019-01-24T09:17:17.920Z,71.90
2019-01-24T09:18:51.793Z,71.87
2019-01-24T09:20:27.126Z,71.76
2019-01-24T09:22:01.578Z,71.72
2019-01-24T09:23:35.889Z,71.98
2019-01-24T09:25:10.132Z,72.15
2019-01-24T09:26:44.113Z,71.64
2019-01-24T09:28:17.108Z,71.67
2019-01-24T09:29:50.987Z,71.97
2019-01-24T09:31:25.464Z,71.77
2019-01-24T09:32:59.400Z,71.99
2019-01-24T09:34:33.216Z,71.47
2019-01-24T09:36:07.413Z,71.62
2019-01-24T09:37:41.582Z,71.86
2019-01-24T09:39:16.044Z,71.33
2019-01-24T09:40:50.797Z,72.15
2019-01-24T09:42:24.867Z,71.87
2019-01-24T09:43:58.336Z,71.64
2019-01-24T09:45:35.354Z,71.34
2019-01-24T09:47:08.698Z,71.37
2019-01-24T09:48:42.833Z,71.18
2019-01-24T09:50:17.514Z,71.73
2019-01-24T09:51:51.784Z,71.53
2019-01-24T09:53:25.976Z,71.16
2019-01-24T09:54:59.915Z,71.31
2019-01-24T09:56:34.049Z,71.53
2019-01-24T09:58:09.051Z,71.23
2019-01-24T09:59:43.019Z,71.05
2019-01-24T10:01:18.152Z,71.47
2019-01-24T10:02:51.919Z,71.53
2019-01-24T10:04:25.951Z,70.71
2019-01-24T10:06:00.016Z,70.64
2019-01-24T10:07:33.818Z,71.49
2019-01-24T10:09:06.948Z,71.01
2019-01-24T10:10:40.903Z,70.84
2019-01-24T10:12:14.835Z,71.26
2019-01-24T10:13:48.344Z,70.64
2019-01-24T10:15:23.676Z,71.36
2019-01-24T10:16:58.293Z,71.04
2019-01-24T10:20:11.284Z,71.35
2019-01-24T10:21:44.874Z,70.80
2019-01-24T10:23:19.510Z,70.49
2019-01-24T10:25:04.603Z,70.57
2019-01-24T10:26:39.189Z,70.85
2019-01-24T10:28:14.148Z,70.57
2019-01-24T10:29:48.150Z,70.55
2019-01-24T10:31:22.471Z,70.55
2019-01-24T10:32:57.291Z,70.33
2019-01-24T10:34:32.467Z,71.27
2019-01-24T10:36:07.361Z,70.45
2019-01-24T10:37:41.350Z,70.71
2019-01-24T10:39:16.249Z,70.91
2019-01-24T10:40:52.382Z,70.44
2019-01-24T10:42:26.306Z,70.69
2019-01-24T10:43:59.370Z,70.62
2019-01-24T10:45:35.391Z,70.45
2019-01-24T10:47:09.308Z,70.18
2019-01-24T10:48:44.705Z,70.41
2019-01-24T10:50:19.912Z,70.17
2019-01-24T10:51:53.650Z,70.54
2019-01-24T10:53:28.044Z,70.14
2019-01-24T10:55:02.062Z,70.33
2019-01-24T10:56:37.371Z,70.41
2019-01-24T10:58:12.323Z,70.25
2019-01-24T10:59:46.142Z,70.23
2019-01-24T11:01:20.079Z,70.03
2019-01-24T11:02:53.462Z,70.09
2019-01-24T11:04:27.444Z,69.98
2019-01-24T11:06:01.965Z,70.65
2019-01-24T11:07:34.961Z,70.30
2019-01-24T11:09:08.879Z,69.81
2019-01-24T11:10:44.134Z,70.53
2019-01-24T11:12:17.571Z,70.12
2019-01-24T11:13:51.571Z,70.22
2019-01-24T11:15:27.682Z,70.22
2019-01-24T11:17:00.964Z,69.73
2019-01-24T11:18:35.586Z,70.08
2019-01-24T11:20:09.426Z,69.69
2019-01-24T11:21:43.412Z,69.67
2019-01-24T11:23:16.524Z,69.81
2019-01-24T11:24:50.599Z,70.28
2019-01-24T11:26:25.367Z,69.62
2019-01-24T11:28:00.067Z,69.62
2019-01-24T11:29:34.355Z,69.54
2019-01-24T11:31:08.772Z,69.49
2019-01-24T11:32:42.918Z,69.71
2019-01-24T11:34:16.992Z,69.48
2019-01-24T11:35:53.702Z,69.89
2019-01-24T11:37:27.596Z,70.07
2019-01-24T11:39:01.884Z,69.47
2019-01-24T11:40:36.717Z,69.78
2019-01-24T11:42:10.127Z,69.59
2019-01-24T11:43:44.610Z,69.99
2019-01-24T11:45:18.598Z,69.25
2019-01-24T11:46:52.876Z,69.55
2019-01-24T11:48:26.946Z,69.56
2019-01-24T11:50:00.101Z,69.63
2019-01-24T11:51:33.914Z,69.12
2019-01-24T11:53:07.043Z,69.41
2019-01-24T11:54:40.993Z,69.48
2019-01-24T11:56:15.011Z,69.31
2019-01-24T11:57:49.391Z,69.49
2019-01-24T11:59:23.517Z,69.61
2019-01-24T12:00:58.434Z,69.39
2019-01-24T12:02:31.183Z,69.46
2019-01-24T12:04:05.322Z,69.04
2019-01-24T12:05:43.540Z,69.34
2019-01-24T12:07:20.304Z,69.18
2019-01-24T12:08:56.863Z,69.68
2019-01-24T12:10:33.736Z,69.25
2019-01-24T12:12:11.835Z,69.50
2019-01-24T12:13:47.656Z,68.95
2019-01-24T12:15:23.141Z,69.02
2019-01-24T12:16:59.149Z,69.23
2019-01-24T12:18:33.459Z,69.35
2019-01-24T12:20:08.004Z,69.46
2019-01-24T12:21:44.159Z,68.78
2019-01-24T12:23:20.104Z,69.25
2019-01-24T12:24:54.669Z,69.24
2019-01-24T12:26:28.548Z,68.76
2019-01-24T12:28:03.840Z,69.49
2019-01-24T12:29:40.252Z,69.22
2019-01-24T12:31:17.625Z,69.39
2019-01-24T12:32:51.108Z,69.17
2019-01-24T12:34:25.164Z,68.96
2019-01-24T12:35:59.313Z,69.32
2019-01-24T12:37:33.663Z,69.22
2019-01-24T12:39:07.469Z,69.54
2019-01-24T12:40:41.613Z,69.51
2019-01-24T12:42:15.778Z,69.68
2019-01-24T12:43:49.022Z,68.94
2019-01-24T12:45:25.673Z,69.66
2019-01-24T12:46:59.270Z,69.06
2019-01-24T12:48:33.295Z,69.35
2019-01-24T12:50:06.122Z,69.30
2019-01-24T12:51:40.263Z,69.72
2019-01-24T12:53:14.354Z,69.41
2019-01-24T12:54:47.500Z,69.34
2019-01-24T12:56:20.446Z,69.60
2019-01-24T12:57:53.818Z,69.18
2019-01-24T12:59:28.021Z,69.63
2019-01-24T13:01:02.922Z,69.25
2019-01-24T13:02:37.414Z,69.18
2019-01-24T13:04:12.530Z,68.99
2019-01-24T13:05:45.621Z,68.95
2019-01-24T13:07:19.888Z,69.56
2019-01-24T13:08:53.817Z,69.15
2019-01-24T13:10:30.736Z,69.23
2019-01-24T13:12:04.775Z,69.49
2019-01-24T13:13:39.815Z,68.93
2019-01-24T13:15:13.811Z,69.20
2019-01-24T13:16:47.153Z,69.28
2019-01-24T13:18:21.574Z,69.17
2019-01-24T13:19:54.753Z,69.52
2019-01-24T13:21:28.599Z,69.11
2019-01-24T13:23:01.500Z,69.18
2019-01-24T13:24:35.711Z,69.30
2019-01-24T13:26:08.831Z,69.41
2019-01-24T13:27:41.846Z,69.35
2019-01-24T13:29:15.831Z,69.25
2019-01-24T13:30:51.354Z,69.04
2019-01-24T13:32:24.662Z,69.11
2019-01-24T13:33:58.548Z,69.28
2019-01-24T13:35:31.492Z,69.15
2019-01-24T13:37:05.667Z,69.48
2019-01-24T13:38:38.609Z,68.92
2019-01-24T13:40:12.827Z,69.60
2019-01-24T13:41:46.750Z,69.30
2019-01-24T13:43:21.773Z,69.06
2019-01-24T13:44:56.094Z,69.02
2019-01-24T13:46:30.316Z,68.88
2019-01-24T13:48:04.285Z,69.35
2019-01-24T13:49:37.241Z,69.22
2019-01-24T13:51:11.931Z,69.17
2019-01-24T13:52:45.926Z,68.92
2019-01-24T13:54:20.214Z,69.01
2019-01-24T13:55:53.787Z,69.38
2019-01-24T13:57:28.166Z,69.40
2019-01-24T13:59:00.928Z,69.24
2019-01-24T14:00:38.970Z,69.34
2019-01-24T14:02:14.053Z,69.05
2019-01-24T14:03:58.043Z,69.39
2019-01-24T14:05:34.581Z,69.09
2019-01-24T14:07:08.769Z,69.44
2019-01-24T14:08:43.650Z,69.14
2019-01-24T14:10:18.071Z,69.18
2019-01-24T14:11:51.108Z,69.12
2019-01-24T14:13:25.643Z,69.59
2019-01-24T14:15:00.011Z,69.48
2019-01-24T14:16:34.634Z,69.51
2019-01-24T14:18:08.846Z,69.20
2019-01-24T14:19:41.852Z,69.32
2019-01-24T14:21:15.032Z,69.46
2019-01-24T14:22:47.796Z,69.84
2019-01-24T14:24:21.980Z,69.54
2019-01-24T14:25:55.389Z,69.51
2019-01-24T14:27:29.001Z,69.39
2019-01-24T14:29:03.187Z,69.60
2019-01-24T14:30:40.255Z,70.08
2019-01-24T14:32:14.284Z,69.44
2019-01-24T14:33:47.905Z,69.75
2019-01-24T14:35:21.655Z,69.79
2019-01-24T14:36:55.979Z,69.98
2019-01-24T14:38:30.183Z,69.58
2019-01-24T14:40:04.091Z,69.92
2019-01-24T14:41:38.704Z,70.08
2019-01-24T14:43:13.160Z,69.67
2019-01-24T14:44:47.228Z,69.82
2019-01-24T14:46:21.570Z,69.75
2019-01-24T14:47:55.850Z,69.89
2019-01-24T14:49:29.925Z,70.08
2019-01-24T14:51:03.871Z,69.57
2019-01-24T14:52:38.287Z,70.11
2019-01-24T14:54:12.486Z,70.18
2019-01-24T14:55:46.486Z,69.84
2019-01-24T14:57:19.609Z,70.09
2019-01-24T14:58:53.511Z,69.91
2019-01-24T15:00:32.003Z,70.02
2019-01-24T15:02:06.224Z,70.19
2019-01-24T15:03:40.511Z,69.98
2019-01-24T15:05:15.088Z,69.76
2019-01-24T15:06:49.300Z,70.00
2019-01-24T15:08:23.655Z,70.19
2019-01-24T15:09:57.555Z,69.54
2019-01-24T15:11:31.178Z,70.36
2019-01-24T15:13:05.286Z,69.95
2019-01-24T15:14:39.467Z,70.31
2019-01-24T15:16:12.879Z,70.05
2019-01-24T15:17:47.099Z,69.68
2019-01-24T15:19:21.726Z,69.66
2019-01-24T15:20:56.030Z,69.93
2019-01-24T15:22:30.561Z,69.67
2019-01-24T15:24:04.495Z,69.69
2019-01-24T15:25:38.507Z,70.06
2019-01-24T15:27:11.980Z,69.79
2019-01-24T15:28:46.970Z,70.35
2019-01-24T15:30:22.603Z,69.56
2019-01-24T15:31:56.699Z,69.96
2019-01-24T15:33:30.564Z,70.14
2019-01-24T15:35:03.861Z,70.05
2019-01-24T15:36:36.907Z,70.52
2019-01-24T15:38:11.133Z,70.54
2019-01-24T15:39:45.400Z,69.99
2019-01-24T15:41:19.591Z,69.73
2019-01-24T15:42:53.724Z,70.28
2019-01-24T15:44:28.113Z,69.92
2019-01-24T15:46:02.332Z,70.39
2019-01-24T15:47:37.630Z,70.12
2019-01-24T15:49:10.744Z,70.07
2019-01-24T15:50:43.624Z,69.99
2019-01-24T15:52:18.059Z,70.37
2019-01-24T15:53:51.455Z,70.05
2019-01-24T15:55:25.706Z,69.93
2019-01-24T15:56:59.492Z,70.30
2019-01-24T15:58:33.642Z,69.94
2019-01-24T16:00:07.928Z,69.81
2019-01-24T16:01:40.855Z,70.14
2019-01-24T16:03:16.028Z,69.95
2019-01-24T16:04:50.067Z,69.54
2019-01-24T16:06:23.159Z,70.33
2019-01-24T16:08:01.568Z,69.58
2019-01-24T16:09:33.019Z,70.31
2019-01-24T16:11:05.881Z,69.95
2019-01-24T16:12:39.931Z,69.45
2019-01-24T16:14:13.085Z,70.21
2019-01-24T16:15:49.464Z,70.20
2019-01-24T16:17:23.555Z,69.44
2019-01-24T16:18:57.502Z,69.47
2019-01-24T16:20:34.553Z,69.81
2019-01-24T16:22:07.377Z,70.09
2019-01-24T16:23:40.730Z,69.42
2019-01-24T16:25:15.629Z,69.88
2019-01-24T16:26:49.607Z,70.00
2019-01-24T16:28:24.831Z,69.93
2019-01-24T16:29:57.320Z,69.41
2019-01-24T16:31:31.344Z,70.16
2019-01-24T16:33:05.315Z,69.62
2019-01-24T16:34:39.236Z,69.57
2019-01-24T16:36:13.135Z,70.06
2019-01-24T16:37:47.211Z,70.05
2019-01-24T16:39:22.812Z,69.80
2019-01-24T16:40:56.105Z,70.04
2019-01-24T16:42:31.013Z,69.99
2019-01-24T16:44:03.996Z,69.35
2019-01-24T16:45:41.090Z,69.45
2019-01-24T16:47:14.940Z,69.42
2019-01-24T16:48:48.879Z,70.14
2019-01-24T16:50:24.240Z,69.34
2019-01-24T16:51:58.506Z,69.91
2019-01-24T16:53:32.718Z,69.70
2019-01-24T16:55:06.840Z,70.07
2019-01-24T16:56:40.947Z,70.00
2019-01-24T16:58:15.137Z,70.36
2019-01-24T16:59:49.455Z,69.86
2019-01-24T17:01:33.903Z,69.75
2019-01-24T17:03:07.899Z,69.87
2019-01-24T17:04:42.234Z,70.51
2019-01-24T17:06:16.649Z,70.28
2019-01-24T17:07:50.866Z,70.68
2019-01-24T17:09:25.805Z,70.73
2019-01-24T17:11:00.411Z,70.21
2019-01-24T17:12:34.497Z,70.77
2019-01-24T17:14:08.429Z,70.28
2019-01-24T17:15:42.408Z,70.61
2019-01-24T17:17:15.834Z,70.19
2019-01-24T17:18:50.050Z,70.66
2019-01-24T17:20:27.215Z,70.60
2019-01-24T17:22:00.341Z,71.20
2019-01-24T17:23:33.269Z,70.69
2019-01-24T17:25:06.509Z,70.81
2019-01-24T17:26:40.550Z,71.07
2019-01-24T17:28:14.638Z,71.46
2019-01-24T17:29:48.340Z,71.58
2019-01-24T17:31:22.853Z,71.56
2019-01-24T17:32:57.088Z,71.38
2019-01-24T17:34:31.681Z,71.10
2019-01-24T17:36:04.351Z,71.20
2019-01-24T17:37:38.686Z,71.21
2019-01-24T17:39:13.443Z,71.34
2019-01-24T17:40:48.437Z,71.70
2019-01-24T17:42:22.306Z,71.11
2019-01-24T17:43:56.482Z,71.54
2019-01-24T17:45:32.151Z,71.79
2019-01-24T17:47:06.192Z,71.01
2019-01-24T17:48:40.510Z,71.23
2019-01-24T17:50:14.414Z,71.78
2019-01-24T17:51:48.417Z,71.52
2019-01-24T17:53:22.047Z,71.40
2019-01-24T17:54:56.223Z,71.14
2019-01-24T17:56:29.400Z,71.49
2019-01-24T17:58:03.572Z,71.18
2019-01-24T17:59:37.783Z,71.87
2019-01-24T18:01:11.706Z,71.52
2019-01-24T18:02:46.104Z,71.71
2019-01-24T18:04:21.799Z,72.17
2019-01-24T18:05:54.780Z,72.01
2019-01-24T18:07:28.339Z,71.71
2019-01-24T18:09:02.991Z,71.60
2019-01-24T18:10:41.281Z,71.34
2019-01-24T18:12:14.335Z,71.79
2019-01-24T18:13:48.771Z,72.20
2019-01-24T18:15:24.813Z,72.30
2019-01-24T18:16:58.231Z,71.48
2019-01-24T18:18:33.441Z,72.11
2019-01-24T18:20:07.583Z,71.67
2019-01-24T18:21:41.651Z,72.45
2019-01-24T18:23:15.761Z,71.61
2019-01-24T18:24:49.968Z,71.83
2019-01-24T18:26:23.980Z,71.57
2019-01-24T18:27:58.186Z,72.53
2019-01-24T18:29:32.216Z,72.45
2019-01-24T18:31:07.133Z,71.99
2019-01-24T18:32:41.296Z,72.38
2019-01-24T18:34:15.757Z,71.96
2019-01-24T18:35:50.180Z,72.10
2019-01-24T18:37:24.531Z,72.34
2019-01-24T18:38:58.625Z,71.85
2019-01-24T18:40:34.914Z,71.90
2019-01-24T18:42:09.035Z,72.22
2019-01-24T18:43:45.100Z,72.53
2019-01-24T18:45:19.205Z,72.13
2019-01-24T18:46:53.251Z,71.96
2019-01-24T18:48:27.235Z,72.50
2019-01-24T18:50:01.339Z,72.30
2019-01-24T18:51:35.636Z,72.36
2019-01-24T18:53:09.602Z,72.30
2019-01-24T18:54:43.574Z,72.75
2019-01-24T18:56:17.487Z,72.32
2019-01-24T18:57:50.632Z,72.25
2019-01-24T18:59:24.445Z,71.89
2019-01-24T19:00:57.310Z,72.37
2019-01-24T19:02:31.476Z,72.76
2019-01-24T19:04:05.373Z,72.50
2019-01-24T19:05:39.030Z,72.54
2019-01-24T19:07:12.962Z,72.54
2019-01-24T19:08:46.212Z,72.89
2019-01-24T19:10:22.284Z,72.80
2019-01-24T19:11:56.325Z,72.85
2019-01-24T19:13:31.106Z,72.88
2019-01-24T19:15:04.976Z,72.70
2019-01-24T19:16:39.021Z,72.50
2019-01-24T19:18:13.142Z,73.00
2019-01-24T19:19:46.178Z,72.70
2019-01-24T19:21:21.430Z,72.60
2019-01-24T19:22:55.742Z,72.68
2019-01-24T19:24:29.724Z,72.23
2019-01-24T19:26:04.026Z,72.98
2019-01-24T19:27:38.982Z,72.70
2019-01-24T19:29:12.364Z,72.59
2019-01-24T19:30:46.763Z,72.78
2019-01-24T19:32:19.774Z,73.12
2019-01-24T19:33:53.447Z,72.79
2019-01-24T19:35:29.122Z,73.07
2019-01-24T19:37:03.002Z,72.84
2019-01-24T19:38:37.470Z,72.82
2019-01-24T19:40:12.966Z,72.32
2019-01-24T19:41:46.921Z,72.33
2019-01-24T19:43:19.920Z,72.75
2019-01-24T19:44:54.058Z,72.37
2019-01-24T19:46:27.745Z,72.70
2019-01-24T19:48:02.058Z,72.39
2019-01-24T19:49:36.452Z,72.46
2019-01-24T19:51:10.500Z,72.68
2019-01-24T19:52:43.852Z,72.81
2019-01-24T19:54:17.938Z,72.64
2019-01-24T19:55:52.175Z,72.84
2019-01-24T19:57:26.295Z,73.06
2019-01-24T19:59:00.389Z,73.04
2019-01-24T20:00:37.564Z,72.76
2019-01-24T20:02:10.670Z,72.26
2019-01-24T20:03:43.631Z,73.04
2019-01-24T20:05:17.750Z,72.84
2019-01-24T20:06:51.760Z,72.29
2019-01-24T20:08:25.751Z,72.54
2019-01-24T20:09:58.726Z,72.46
2019-01-24T20:11:31.685Z,72.25
2019-01-24T20:13:06.479Z,72.70
2019-01-24T20:14:39.330Z,72.28
2019-01-24T20:16:13.536Z,72.37
2019-01-24T20:17:47.928Z,72.35
2019-01-24T20:19:21.752Z,72.76